createdAt,value
2023-12-03T00:00:56.864Z,14.15
2023-12-03T00:03:26.126Z,15.77
2023-12-03T00:05:54.743Z,14.77
2023-12-03T00:08:34.886Z,13.02
2023-12-03T00:11:11.590Z,13.40
2023-12-03T00:13:40.549Z,13.27
2023-12-03T00:16:10.529Z,15.07
2023-12-03T00:18:40.419Z,14.20
2023-12-03T00:21:09.856Z,14.75
2023-12-03T00:23:39.673Z,13.52
2023-12-03T00:26:09.004Z,13.43
2023-12-03T00:28:39.764Z,16.63
2023-12-03T00:31:08.539Z,13.57
2023-12-03T00:33:36.990Z,13.27
2023-12-03T00:36:06.056Z,14.40
2023-12-03T00:38:34.571Z,11.30
2023-12-03T00:41:02.767Z,12.80
2023-12-03T00:43:35.337Z,12.18
2023-12-03T00:46:05.450Z,14.07
2023-12-03T00:48:34.062Z,13.52
2023-12-03T00:51:02.563Z,12.23
2023-12-03T00:53:30.962Z,12.32
2023-12-03T00:55:59.338Z,12.00
2023-12-03T00:58:27.941Z,14.65
2023-12-03T01:00:56.966Z,13.57
2023-12-03T01:03:27.911Z,13.45
2023-12-03T01:05:58.579Z,11.68
2023-12-03T01:08:26.914Z,12.70
2023-12-03T01:10:55.403Z,12.30
2023-12-03T01:13:25.478Z,11.07
2023-12-03T01:15:54.003Z,11.93
2023-12-03T01:18:22.541Z,13.43
2023-12-03T01:20:52.306Z,13.82
2023-12-03T01:23:20.481Z,14.05
2023-12-03T01:25:49.154Z,14.25
2023-12-03T01:28:21.479Z,15.35
2023-12-03T01:30:49.901Z,14.20
2023-12-03T01:33:18.260Z,14.60
2023-12-03T01:35:46.429Z,12.40
2023-12-03T01:38:16.126Z,12.93
2023-12-03T01:40:53.635Z,14.43
2023-12-03T01:43:22.150Z,13.55
2023-12-03T01:45:50.383Z,14.50
2023-12-03T01:48:21.459Z,14.80
2023-12-03T01:50:53.609Z,16.08
2023-12-03T01:53:27.001Z,12.30
2023-12-03T01:55:55.408Z,13.23
2023-12-03T01:58:24.080Z,14.07
2023-12-03T02:00:52.199Z,13.70
2023-12-03T02:03:20.888Z,14.48
2023-12-03T02:05:50.593Z,12.90
2023-12-03T02:08:19.028Z,13.93
2023-12-03T02:10:49.908Z,13.68
2023-12-03T02:13:18.043Z,13.85
2023-12-03T02:15:48.894Z,13.45
2023-12-03T02:18:17.165Z,14.02
2023-12-03T02:20:45.425Z,12.52
2023-12-03T02:23:16.130Z,16.60
2023-12-03T02:25:44.671Z,16.60
2023-12-03T02:28:13.163Z,13.55
2023-12-03T02:30:42.776Z,13.32
2023-12-03T02:33:10.951Z,16.48
2023-12-03T02:35:39.389Z,13.65
2023-12-03T02:38:07.820Z,13.85
2023-12-03T02:40:39.469Z,15.98
2023-12-03T02:43:07.876Z,13.02
2023-12-03T02:45:36.341Z,13.68
2023-12-03T02:48:05.519Z,13.07
2023-12-03T02:50:33.918Z,13.90
2023-12-03T02:53:03.167Z,13.32
2023-12-03T02:55:31.642Z,14.65
2023-12-03T02:58:01.428Z,13.07
2023-12-03T03:00:29.990Z,13.23
2023-12-03T03:02:58.106Z,14.50
2023-12-03T03:05:27.725Z,13.27
2023-12-03T03:07:56.258Z,11.57
2023-12-03T03:10:24.949Z,13.77
2023-12-03T03:12:54.095Z,14.15
2023-12-03T03:15:23.881Z,13.70
2023-12-03T03:17:52.460Z,11.75
2023-12-03T03:20:24.176Z,15.15
2023-12-03T03:22:52.676Z,12.82
2023-12-03T03:25:20.821Z,13.38
2023-12-03T03:27:49.325Z,11.20
2023-12-03T03:30:17.938Z,13.20
2023-12-03T03:32:50.731Z,13.25
2023-12-03T03:35:19.172Z,13.00
2023-12-03T03:37:48.060Z,13.27
2023-12-03T03:40:16.835Z,12.80
2023-12-03T03:42:45.610Z,12.05
2023-12-03T03:45:14.059Z,11.38
2023-12-03T03:47:42.222Z,12.43
2023-12-03T03:50:12.784Z,13.57
2023-12-03T03:52:41.025Z,10.65
2023-12-03T03:55:09.795Z,11.27
2023-12-03T03:57:38.198Z,11.80
2023-12-03T04:00:08.138Z,12.48
2023-12-03T04:02:36.339Z,12.00
2023-12-03T04:05:05.252Z,11.55
2023-12-03T04:07:35.074Z,13.18
2023-12-03T04:10:03.399Z,14.15
2023-12-03T04:12:34.892Z,13.80
2023-12-03T04:15:03.174Z,14.52
2023-12-03T04:17:34.510Z,10.20
2023-12-03T04:20:02.761Z,11.20
2023-12-03T04:22:30.929Z,11.30
2023-12-03T04:25:00.609Z,10.48
2023-12-03T04:27:32.085Z,10.85
2023-12-03T04:30:00.908Z,11.05
2023-12-03T04:32:29.322Z,11.55
2023-12-03T04:34:57.790Z,12.10
2023-12-03T04:37:26.199Z,10.60
2023-12-03T04:39:55.145Z,10.73
2023-12-03T04:42:24.628Z,11.30
2023-12-03T04:44:52.842Z,11.27
2023-12-03T04:47:21.293Z,12.73
2023-12-03T04:49:49.390Z,11.43
2023-12-03T04:52:17.868Z,11.23
2023-12-03T04:54:46.230Z,10.07
2023-12-03T04:57:14.981Z,11.10
2023-12-03T04:59:44.789Z,11.63
2023-12-03T05:02:12.883Z,11.85
2023-12-03T05:04:41.258Z,11.10
2023-12-03T05:07:09.931Z,10.95
2023-12-03T05:09:40.985Z,11.73
2023-12-03T05:12:09.864Z,11.50
2023-12-03T05:14:38.758Z,13.80
2023-12-03T05:17:09.238Z,12.75
2023-12-03T05:19:37.682Z,14.10
2023-12-03T05:22:06.313Z,14.02
2023-12-03T05:24:34.711Z,13.60
2023-12-03T05:27:03.167Z,14.00
2023-12-03T05:29:31.850Z,12.50
2023-12-03T05:32:00.334Z,16.55
2023-12-03T05:34:30.012Z,14.18
2023-12-03T05:37:01.014Z,13.32
2023-12-03T05:39:29.346Z,12.30
2023-12-03T05:42:02.771Z,13.93
2023-12-03T05:44:32.430Z,13.38
2023-12-03T05:47:00.895Z,13.13
2023-12-03T05:49:30.580Z,12.90
2023-12-03T05:52:00.294Z,15.50
2023-12-03T05:54:28.699Z,14.98
2023-12-03T05:56:57.058Z,15.00
2023-12-03T05:59:25.369Z,13.15
2023-12-03T06:01:59.400Z,12.30
2023-12-03T06:04:27.835Z,10.90
2023-12-03T06:06:57.832Z,12.85
2023-12-03T06:09:29.312Z,12.93
2023-12-03T06:11:57.478Z,12.75
2023-12-03T06:14:25.800Z,14.30
2023-12-03T06:16:54.525Z,13.32
2023-12-03T06:19:23.062Z,13.27
2023-12-03T06:21:51.793Z,13.15
2023-12-03T06:24:22.053Z,14.60
2023-12-03T06:26:50.432Z,14.15
2023-12-03T06:29:18.607Z,15.27
2023-12-03T06:31:46.940Z,13.63
2023-12-03T06:34:16.722Z,12.05
2023-12-03T06:36:45.316Z,13.18
2023-12-03T06:39:13.732Z,12.75
2023-12-03T06:41:44.726Z,13.88
2023-12-03T06:44:13.305Z,14.18
2023-12-03T06:46:42.471Z,13.23
2023-12-03T06:49:13.655Z,10.45
2023-12-03T06:51:41.817Z,10.98
2023-12-03T06:54:10.389Z,12.40
2023-12-03T06:56:38.777Z,13.52
2023-12-03T06:59:09.523Z,14.30
2023-12-03T07:01:38.863Z,15.20
2023-12-03T07:04:07.529Z,12.77
2023-12-03T07:06:35.727Z,14.75
2023-12-03T07:09:35.945Z,12.57
2023-12-03T07:11:52.545Z,13.38
2023-12-03T07:14:22.039Z,13.10
2023-12-03T07:16:52.382Z,12.15
2023-12-03T07:19:20.816Z,12.25
2023-12-03T07:21:49.259Z,12.75
2023-12-03T07:24:18.982Z,12.63
2023-12-03T07:26:51.603Z,15.10
2023-12-03T07:29:21.979Z,11.63
2023-12-03T07:31:51.359Z,12.32
2023-12-03T07:34:19.550Z,13.82
2023-12-03T07:36:47.951Z,12.32
2023-12-03T07:39:18.828Z,13.02
2023-12-03T07:41:51.554Z,13.65
2023-12-03T07:44:21.659Z,13.02
2023-12-03T07:46:50.274Z,11.02
2023-12-03T07:49:20.103Z,13.80
2023-12-03T07:51:49.208Z,12.13
2023-12-03T07:54:19.505Z,14.07
2023-12-03T07:56:47.876Z,13.75
2023-12-03T07:59:16.126Z,15.57
2023-12-03T08:01:49.440Z,13.43
2023-12-03T08:04:17.583Z,12.48
2023-12-03T08:06:45.926Z,13.60
2023-12-03T08:09:14.439Z,12.35
2023-12-03T08:11:42.829Z,16.25
2023-12-03T08:14:14.396Z,14.65
2023-12-03T08:16:42.859Z,16.48
2023-12-03T08:19:15.361Z,13.10
2023-12-03T08:21:44.292Z,12.60
2023-12-03T08:24:13.101Z,12.10
2023-12-03T08:26:41.896Z,12.70
2023-12-03T08:29:10.227Z,15.02
2023-12-03T08:31:38.799Z,14.23
2023-12-03T08:34:09.295Z,10.95
2023-12-03T08:36:39.297Z,12.70
2023-12-03T08:39:09.994Z,11.82
2023-12-03T08:41:39.102Z,17.23
2023-12-03T08:44:07.457Z,16.48
2023-12-03T08:46:35.687Z,12.63
2023-12-03T08:49:04.228Z,11.88
2023-12-03T08:51:32.558Z,11.95
2023-12-03T08:54:02.521Z,16.42
2023-12-03T08:56:31.080Z,12.43
2023-12-03T08:58:59.409Z,14.75
2023-12-03T09:01:27.936Z,13.63
2023-12-03T09:03:59.364Z,11.10
2023-12-03T09:06:28.441Z,11.75
2023-12-03T09:08:57.435Z,15.60
2023-12-03T09:11:29.503Z,13.63
2023-12-03T09:14:00.526Z,12.57
2023-12-03T09:16:31.959Z,11.45
2023-12-03T09:19:00.489Z,12.18
2023-12-03T09:21:29.158Z,11.65
2023-12-03T09:23:58.130Z,13.38
2023-12-03T09:26:27.714Z,13.95
2023-12-03T09:28:56.168Z,15.85
2023-12-03T09:31:24.427Z,13.30
2023-12-03T09:33:52.930Z,11.35
2023-12-03T09:36:21.232Z,12.35
2023-12-03T09:38:49.753Z,12.05
2023-12-03T09:41:21.328Z,11.05
2023-12-03T09:43:56.294Z,11.43
2023-12-03T09:46:31.146Z,11.45
2023-12-03T09:49:02.585Z,9.43
2023-12-03T09:51:32.400Z,11.85
2023-12-03T09:54:02.731Z,9.95
2023-12-03T09:56:33.344Z,10.57
2023-12-03T09:59:03.754Z,11.15
2023-12-03T10:01:33.289Z,10.27
2023-12-03T10:04:01.595Z,9.80
2023-12-03T10:06:31.056Z,12.20
2023-12-03T10:08:59.802Z,13.10
2023-12-03T10:11:29.613Z,10.38
2023-12-03T10:14:02.703Z,10.25
2023-12-03T10:16:32.401Z,12.38
2023-12-03T10:19:00.988Z,10.60
2023-12-03T10:21:30.175Z,10.63
2023-12-03T10:23:59.859Z,11.27
2023-12-03T10:26:29.310Z,11.23
2023-12-03T10:28:57.508Z,11.55
2023-12-03T10:31:26.309Z,13.02
2023-12-03T10:33:55.998Z,10.20
2023-12-03T10:36:24.346Z,16.50
2023-12-03T10:38:55.220Z,12.18
2023-12-03T10:41:25.309Z,10.90
2023-12-03T10:43:53.663Z,10.48
2023-12-03T10:46:22.078Z,10.45
2023-12-03T10:48:51.434Z,10.90
2023-12-03T10:51:21.342Z,10.25
2023-12-03T10:53:50.209Z,10.10
2023-12-03T10:56:19.623Z,12.50
2023-12-03T10:58:49.519Z,10.80
2023-12-03T11:01:22.382Z,11.32
2023-12-03T11:03:58.696Z,13.90
2023-12-03T11:06:29.006Z,10.25
2023-12-03T11:08:59.154Z,12.65
2023-12-03T11:11:27.884Z,12.88
2023-12-03T11:13:57.895Z,11.50
2023-12-03T11:16:31.940Z,9.55
2023-12-03T11:19:06.160Z,10.43
2023-12-03T11:21:44.886Z,10.23
2023-12-03T11:24:40.347Z,10.30
2023-12-03T11:27:08.656Z,10.40
2023-12-03T11:29:58.796Z,12.20
2023-12-03T11:32:33.273Z,13.43
2023-12-03T11:35:09.851Z,9.68
2023-12-03T11:37:43.346Z,9.32
2023-12-03T11:40:14.922Z,10.02
2023-12-03T11:42:47.193Z,11.68
2023-12-03T11:45:25.215Z,9.73
2023-12-03T11:48:06.642Z,15.30
2023-12-03T11:50:39.490Z,11.32
2023-12-03T11:53:10.105Z,11.25
2023-12-03T11:55:42.983Z,10.32
2023-12-03T12:00:42.184Z,10.45
2023-12-03T12:03:11.454Z,10.13
2023-12-03T12:05:46.671Z,9.35
2023-12-03T12:08:22.376Z,9.90
2023-12-03T12:10:53.795Z,10.05
2023-12-03T12:13:23.939Z,10.50
2023-12-03T12:15:52.575Z,10.95
2023-12-03T12:18:23.917Z,9.10
2023-12-03T12:20:53.139Z,10.55
2023-12-03T12:23:23.065Z,13.32
2023-12-03T12:25:51.400Z,10.18
2023-12-03T12:28:19.763Z,9.75
2023-12-03T12:30:48.530Z,12.35
2023-12-03T12:33:17.322Z,8.93
2023-12-03T12:35:45.824Z,9.35
2023-12-03T12:38:14.321Z,8.98
2023-12-03T12:40:54.552Z,9.40
2023-12-03T12:43:23.330Z,9.40
2023-12-03T12:45:52.698Z,8.88
2023-12-03T12:48:27.036Z,10.60
2023-12-03T12:50:55.520Z,11.30
2023-12-03T12:53:24.372Z,14.60
2023-12-03T12:55:54.289Z,11.40
2023-12-03T12:58:22.677Z,10.75
2023-12-03T13:00:51.116Z,9.95
2023-12-03T13:03:20.690Z,8.98
2023-12-03T13:05:49.499Z,13.73
2023-12-03T13:08:17.681Z,9.98
2023-12-03T13:10:46.134Z,10.20
2023-12-03T13:13:15.768Z,9.10
2023-12-03T13:15:44.404Z,8.15
2023-12-03T13:18:19.756Z,10.10
2023-12-03T13:20:51.417Z,9.93
2023-12-03T13:23:19.621Z,9.77
2023-12-03T13:25:47.691Z,11.82
2023-12-03T13:28:18.677Z,9.00
2023-12-03T13:30:47.152Z,8.43
2023-12-03T13:33:15.531Z,9.07
2023-12-03T13:35:43.810Z,9.35
2023-12-03T13:38:12.262Z,11.98
2023-12-03T13:40:43.442Z,9.55
2023-12-03T13:43:11.633Z,9.93
2023-12-03T13:45:44.291Z,11.02
2023-12-03T13:48:12.611Z,11.77
2023-12-03T13:50:41.018Z,9.63
2023-12-03T13:53:09.337Z,10.63
2023-12-03T13:55:37.674Z,10.00
2023-12-03T13:58:05.805Z,9.40
2023-12-03T14:00:33.987Z,11.27
2023-12-03T14:03:04.094Z,11.02
2023-12-03T14:05:32.345Z,10.57
2023-12-03T14:08:03.365Z,9.40
2023-12-03T14:10:31.446Z,10.25
2023-12-03T14:12:59.859Z,12.23
2023-12-03T14:15:28.238Z,11.48
2023-12-03T14:17:56.549Z,11.43
2023-12-03T14:20:27.296Z,11.10
2023-12-03T14:22:55.691Z,10.00
2023-12-03T14:25:26.888Z,12.27
2023-12-03T14:27:54.929Z,10.38
2023-12-03T14:30:23.531Z,10.77
2023-12-03T14:32:52.028Z,10.52
2023-12-03T14:35:20.307Z,9.75
2023-12-03T14:37:50.014Z,9.30
2023-12-03T14:40:18.760Z,9.05
2023-12-03T14:42:47.324Z,10.98
2023-12-03T14:45:15.568Z,10.02
2023-12-03T14:47:43.695Z,9.57
2023-12-03T14:50:18.861Z,11.02
2023-12-03T14:52:48.958Z,10.23
2023-12-03T14:55:17.201Z,8.73
2023-12-03T14:57:46.243Z,9.75
2023-12-03T15:00:17.257Z,9.32
2023-12-03T15:02:46.351Z,10.27
2023-12-03T15:05:14.916Z,8.95
2023-12-03T15:07:44.599Z,9.70
2023-12-03T15:10:14.765Z,9.32
2023-12-03T15:12:43.241Z,8.10
2023-12-03T15:15:11.944Z,11.07
2023-12-03T15:17:40.335Z,9.38
2023-12-03T15:20:09.525Z,8.23
2023-12-03T15:22:38.275Z,8.70
2023-12-03T15:25:07.881Z,10.10
2023-12-03T15:27:37.774Z,18.75
2023-12-03T15:30:07.441Z,11.13
2023-12-03T15:32:38.632Z,9.25
2023-12-03T15:35:07.528Z,24.42
2023-12-03T15:37:35.692Z,11.25
2023-12-03T15:40:03.956Z,10.48
2023-12-03T15:42:32.524Z,11.32
2023-12-03T15:45:02.341Z,9.80
2023-12-03T15:47:30.838Z,8.38
2023-12-03T15:49:59.694Z,8.55
2023-12-03T15:52:27.854Z,10.20
2023-12-03T15:55:07.670Z,10.43
2023-12-03T15:57:41.191Z,9.98
2023-12-03T16:00:11.531Z,11.57
2023-12-03T16:02:39.914Z,8.20
2023-12-03T16:05:09.047Z,10.48
2023-12-03T16:07:37.464Z,9.10
2023-12-03T16:10:07.709Z,8.52
2023-12-03T16:12:36.414Z,9.40
2023-12-03T16:15:07.281Z,8.77
2023-12-03T16:17:38.574Z,9.13
2023-12-03T16:20:08.381Z,8.52
2023-12-03T16:22:36.857Z,11.60
2023-12-03T16:25:05.878Z,10.10
2023-12-03T16:27:34.391Z,10.27
2023-12-03T16:30:02.892Z,9.77
2023-12-03T16:32:31.094Z,8.93
2023-12-03T16:35:00.718Z,10.70
2023-12-03T16:37:29.426Z,9.63
2023-12-03T16:39:59.044Z,8.98
2023-12-03T16:42:28.674Z,10.23
2023-12-03T16:44:58.090Z,10.75
2023-12-03T16:47:27.151Z,8.40
2023-12-03T16:49:55.493Z,10.05
2023-12-03T16:52:27.621Z,9.30
2023-12-03T16:54:56.165Z,9.45
2023-12-03T16:57:24.900Z,10.65
2023-12-03T16:59:53.949Z,10.30
2023-12-03T17:02:22.328Z,11.70
2023-12-03T17:04:50.750Z,10.88
2023-12-03T17:07:19.425Z,9.35
2023-12-03T17:09:49.513Z,9.45
2023-12-03T17:12:17.660Z,9.85
2023-12-03T17:14:47.285Z,9.18
2023-12-03T17:17:17.119Z,8.00
2023-12-03T17:19:45.508Z,10.02
2023-12-03T17:22:13.732Z,10.80
2023-12-03T17:24:42.684Z,8.73
2023-12-03T17:27:15.117Z,8.95
2023-12-03T17:29:43.268Z,8.98
2023-12-03T17:32:11.736Z,10.55
2023-12-03T17:34:41.362Z,8.45
2023-12-03T17:37:09.855Z,8.68
2023-12-03T17:39:39.422Z,11.25
2023-12-03T17:42:09.361Z,11.27
2023-12-03T17:44:38.989Z,9.13
2023-12-03T17:47:07.485Z,9.50
2023-12-03T17:49:35.869Z,11.00
2023-12-03T17:52:04.126Z,8.65
2023-12-03T17:54:32.472Z,10.00
2023-12-03T17:57:00.651Z,11.55
2023-12-03T17:59:28.884Z,11.20
2023-12-03T18:01:59.458Z,11.05
2023-12-03T18:04:27.898Z,10.43
2023-12-03T18:06:56.385Z,11.35
2023-12-03T18:09:24.896Z,10.95
2023-12-03T18:11:53.096Z,12.27
2023-12-03T18:14:21.257Z,11.68
2023-12-03T18:16:50.317Z,11.45
2023-12-03T18:19:22.772Z,11.15
2023-12-03T18:21:51.274Z,10.45
2023-12-03T18:24:22.791Z,11.10
2023-12-03T18:26:51.318Z,12.43
2023-12-03T18:29:19.819Z,11.75
2023-12-03T18:31:48.602Z,9.90
2023-12-03T18:34:16.839Z,10.55
2023-12-03T18:36:46.473Z,12.55
2023-12-03T18:39:15.680Z,11.60
2023-12-03T18:41:44.078Z,10.48
2023-12-03T18:44:14.281Z,11.32
2023-12-03T18:46:42.491Z,11.27
2023-12-03T18:49:10.956Z,11.18
2023-12-03T18:51:39.589Z,11.85
2023-12-03T18:54:09.377Z,14.43
2023-12-03T18:56:37.598Z,9.88
2023-12-03T18:59:05.880Z,11.20
2023-12-03T19:01:34.694Z,10.85
2023-12-03T19:04:03.197Z,9.65
2023-12-03T19:06:31.658Z,10.88
2023-12-03T19:09:00.118Z,11.27
2023-12-03T19:11:32.404Z,12.73
2023-12-03T19:14:00.942Z,13.23
2023-12-03T19:16:29.160Z,11.07
2023-12-03T19:18:57.777Z,11.27
2023-12-03T19:21:26.271Z,13.98
2023-12-03T19:23:55.674Z,11.63
2023-12-03T19:26:24.158Z,12.50
2023-12-03T19:28:54.649Z,10.07
2023-12-03T19:31:23.089Z,12.25
2023-12-03T19:33:53.013Z,12.00
2023-12-03T19:36:21.777Z,12.13
2023-12-03T19:38:50.367Z,12.35
2023-12-03T19:41:18.756Z,13.32
2023-12-03T19:43:46.945Z,13.43
2023-12-03T19:46:16.777Z,14.27
2023-12-03T19:48:45.077Z,12.68
2023-12-03T19:51:13.789Z,12.30
2023-12-03T19:53:49.365Z,12.68
2023-12-03T19:56:17.866Z,12.27
2023-12-03T19:58:46.293Z,12.02
2023-12-03T20:01:16.530Z,16.05
2023-12-03T20:03:45.654Z,12.55
2023-12-03T20:06:14.390Z,12.27
2023-12-03T20:08:43.173Z,13.43
2023-12-03T20:11:11.929Z,13.30
2023-12-03T20:13:40.101Z,14.13
2023-12-03T20:16:10.902Z,14.75
2023-12-03T20:18:40.887Z,14.45
2023-12-03T20:21:09.988Z,17.30
2023-12-03T20:23:39.162Z,15.35
2023-12-03T20:26:08.848Z,15.25
2023-12-03T20:28:38.465Z,16.38
2023-12-03T20:31:09.016Z,16.92
2023-12-03T20:33:42.904Z,16.45
2023-12-03T20:36:13.925Z,15.00
2023-12-03T20:41:19.693Z,15.80
2023-12-03T20:43:48.161Z,14.00
2023-12-03T20:46:17.147Z,14.18
2023-12-03T20:48:47.176Z,14.90
2023-12-03T20:51:15.974Z,14.70
2023-12-03T20:53:44.497Z,14.15
2023-12-03T20:56:12.972Z,14.32
2023-12-03T20:58:41.227Z,16.13
2023-12-03T21:01:13.545Z,15.43
2023-12-03T21:03:42.177Z,15.85
2023-12-03T21:06:12.460Z,14.75
2023-12-03T21:08:40.866Z,14.00
2023-12-03T21:11:09.130Z,16.85
2023-12-03T21:13:38.750Z,17.02
2023-12-03T21:16:08.251Z,14.65
2023-12-03T21:18:36.478Z,13.98
2023-12-03T21:21:05.233Z,14.55
2023-12-03T21:23:34.759Z,15.73
2023-12-03T21:26:03.369Z,16.02
2023-12-03T21:28:31.767Z,14.57
2023-12-03T21:31:00.787Z,15.13
2023-12-03T21:33:29.262Z,14.90
2023-12-03T21:35:58.746Z,15.13
2023-12-03T21:38:27.036Z,16.20
2023-12-03T21:40:57.224Z,16.50
2023-12-03T21:43:26.110Z,14.60
2023-12-03T21:45:55.329Z,16.42
2023-12-03T21:48:26.485Z,16.33
2023-12-03T21:50:54.892Z,15.88
2023-12-03T21:53:23.058Z,17.25
2023-12-03T21:55:51.425Z,16.52
2023-12-03T21:58:21.195Z,15.48
2023-12-03T22:00:49.375Z,16.25
2023-12-03T22:03:17.824Z,15.38
2023-12-03T22:05:46.296Z,15.73
2023-12-03T22:08:14.672Z,14.88
2023-12-03T22:10:43.220Z,17.05
2023-12-03T22:13:11.515Z,16.58
2023-12-03T22:15:41.554Z,16.25
2023-12-03T22:18:09.962Z,15.43
2023-12-03T22:20:38.309Z,16.67
2023-12-03T22:23:06.631Z,17.52
2023-12-03T22:25:35.150Z,15.30
2023-12-03T22:28:03.666Z,17.15
2023-12-03T22:30:32.285Z,17.98
2023-12-03T22:33:02.230Z,16.90
2023-12-03T22:35:30.636Z,17.08
2023-12-03T22:37:59.658Z,18.58
2023-12-03T22:40:28.037Z,17.02
2023-12-03T22:42:56.296Z,18.15
2023-12-03T22:45:24.641Z,18.83
2023-12-03T22:47:54.000Z,18.52
2023-12-03T22:50:26.760Z,17.60
2023-12-03T22:52:56.620Z,18.85
2023-12-03T22:55:24.782Z,18.75
2023-12-03T22:57:53.631Z,20.30
2023-12-03T23:00:22.259Z,17.63
2023-12-03T23:02:51.054Z,16.95
2023-12-03T23:07:51.938Z,17.38
2023-12-03T23:10:20.356Z,18.73
2023-12-03T23:12:48.559Z,18.70
2023-12-03T23:15:19.058Z,17.13
2023-12-03T23:17:47.774Z,18.15
2023-12-03T23:20:16.223Z,18.95
2023-12-03T23:22:44.593Z,17.75
2023-12-03T23:25:14.525Z,17.35
2023-12-03T23:27:42.695Z,18.15
2023-12-03T23:30:12.232Z,17.75
2023-12-03T23:32:41.843Z,19.30
2023-12-03T23:35:10.438Z,18.38
2023-12-03T23:37:39.054Z,17.80
2023-12-03T23:40:09.051Z,17.40
2023-12-03T23:42:39.457Z,18.70
2023-12-03T23:45:08.797Z,18.17
2023-12-03T23:47:37.353Z,18.08
2023-12-03T23:50:06.687Z,18.13
2023-12-03T23:52:35.363Z,21.83
2023-12-03T23:55:04.166Z,20.63
2023-12-03T23:57:32.588Z,17.88
